Terminal Aerodrome Forecast
Issued by NWS Wilmington, OH

Current Version | Previous Version | Graphics & Text | Print | Product List | Glossary On
Versions: 1 2 3 4 5 6 7 8 9 10 11 12 13 14 15 16 17 18 19 20 21 22 23 24 25
000
FTUS41 KILN 271700
TAFILN
TAF
KILN 271739Z 2718/2818 22012G20KT P6SM SCT040
      TEMPO 2720/2722 3SM TSRA BKN030CB
     FM280000 23010KT P6SM VCTS BKN050CB
     FM280200 25006KT P6SM SCT050
     FM280900 VRB03KT 5SM BR FEW040
     FM281400 07006KT P6SM FEW035=

USA.gov is the U.S. government's official web portal to all federal, state and local government web resources and services.